createdAt,value
2023-03-06T00:09:23.020Z,13.20
2023-03-06T00:28:00.833Z,13.10
2023-03-06T00:30:38.300Z,13.10
2023-03-06T00:33:47.346Z,13.00
2023-03-06T00:37:00.551Z,13.00
2023-03-06T00:40:05.119Z,13.00
2023-03-06T00:42:50.580Z,13.00
2023-03-06T00:45:50.780Z,13.00
2023-03-06T00:48:51.266Z,13.00
2023-03-06T00:52:05.891Z,13.00
2023-03-06T00:58:02.185Z,13.00
2023-03-06T01:00:58.042Z,13.00
2023-03-06T01:03:37.293Z,13.00
2023-03-06T01:11:09.292Z,13.00
2023-03-06T01:14:29.805Z,13.00
2023-03-06T01:18:05.488Z,13.00
2023-03-06T01:20:45.004Z,13.00
2023-03-06T01:23:31.770Z,13.00
2023-03-06T01:26:26.882Z,13.00
2023-03-06T01:29:25.341Z,13.00
2023-03-06T01:32:36.144Z,13.00
2023-03-06T01:35:30.674Z,13.00
2023-03-06T01:38:43.438Z,13.00
2023-03-06T01:41:24.404Z,13.10
2023-03-06T01:44:04.874Z,13.00
2023-03-06T01:50:41.130Z,13.10
2023-03-06T01:57:53.721Z,13.10
2023-03-06T02:07:18.189Z,12.90
2023-03-06T02:10:23.868Z,12.80
2023-03-06T02:16:18.344Z,12.80
2023-03-06T02:19:05.112Z,12.80
2023-03-06T02:22:01.516Z,12.80
2023-03-06T02:25:06.774Z,12.70
2023-03-06T02:28:02.764Z,12.70
2023-03-06T02:31:20.238Z,12.70
2023-03-06T02:34:06.806Z,12.60
2023-03-06T02:37:29.884Z,12.60
2023-03-06T02:40:15.832Z,12.60
2023-03-06T02:42:57.025Z,12.60
2023-03-06T02:45:46.484Z,12.50
2023-03-06T02:48:23.531Z,12.50
2023-03-06T02:51:05.298Z,12.40
2023-03-06T02:53:46.579Z,12.40
2023-03-06T02:56:31.436Z,12.40
2023-03-06T02:59:20.995Z,12.40
2023-03-06T03:02:10.414Z,12.40
2023-03-06T03:07:59.942Z,12.40
2023-03-06T03:10:37.179Z,12.40
2023-03-06T03:13:15.887Z,12.40
2023-03-06T03:16:25.824Z,12.40
2023-03-06T03:19:32.854Z,12.40
2023-03-06T03:23:04.635Z,12.50
2023-03-06T03:25:41.121Z,12.40
2023-03-06T03:28:30.618Z,12.50
2023-03-06T03:31:22.850Z,12.40
2023-03-06T03:34:04.838Z,12.40
2023-03-06T03:37:01.737Z,12.40
2023-03-06T03:39:44.549Z,12.40
2023-03-06T03:42:39.393Z,12.50
2023-03-06T03:48:30.803Z,12.50
2023-03-06T03:51:27.095Z,12.50
2023-03-06T03:58:19.995Z,12.50
2023-03-06T04:01:06.506Z,12.50
2023-03-06T04:03:54.702Z,12.50
2023-03-06T04:10:03.561Z,12.40
2023-03-06T04:12:45.042Z,12.40
2023-03-06T04:19:23.455Z,12.40
2023-03-06T04:33:48.092Z,12.30
2023-03-06T04:40:45.188Z,12.30
2023-03-06T04:43:46.812Z,12.30
2023-03-06T04:46:34.992Z,12.30
2023-03-06T04:56:36.688Z,12.30
2023-03-06T05:04:17.099Z,12.30
2023-03-06T05:07:27.729Z,12.30
2023-03-06T05:14:48.138Z,12.20
2023-03-06T05:17:56.439Z,12.20
2023-03-06T05:21:17.771Z,12.20
2023-03-06T05:24:18.980Z,12.20
2023-03-06T05:27:46.785Z,12.10
2023-03-06T05:30:52.979Z,12.10
2023-03-06T05:33:48.483Z,12.10
2023-03-06T05:37:03.986Z,12.10
2023-03-06T05:40:09.126Z,12.00
2023-03-06T05:43:02.214Z,12.00
2023-03-06T05:45:52.873Z,12.00
2023-03-06T05:48:33.540Z,12.00
2023-03-06T05:55:27.598Z,12.10
2023-03-06T06:04:47.150Z,12.50
2023-03-06T06:08:12.171Z,12.70
2023-03-06T06:15:20.699Z,13.20
2023-03-06T06:18:36.061Z,13.60
2023-03-06T06:39:54.830Z,14.80
2023-03-06T14:12:51.302Z,17.60
2023-03-06T20:03:00.739Z,14.60
2023-03-06T20:09:42.714Z,14.70
2023-03-06T20:12:42.362Z,14.70
2023-03-06T20:23:37.117Z,14.60
